createdAt,value
2022-11-10T00:00:43.564Z,17.67
2022-11-10T00:03:12.678Z,18.07
2022-11-10T00:05:41.325Z,18.70
2022-11-10T00:08:10.749Z,18.87
2022-11-10T00:10:55.179Z,19.17
2022-11-10T00:13:23.968Z,18.27
2022-11-10T00:16:10.129Z,17.77
2022-11-10T00:18:38.546Z,18.40
2022-11-10T00:21:07.851Z,17.87
2022-11-10T00:23:36.273Z,17.83
2022-11-10T00:26:06.468Z,18.23
2022-11-10T00:28:34.936Z,18.57
2022-11-10T00:31:07.356Z,17.67
2022-11-10T00:33:36.367Z,17.60
2022-11-10T00:36:04.870Z,18.23
2022-11-10T00:38:33.311Z,18.77
2022-11-10T00:41:01.881Z,18.60
2022-11-10T00:43:32.710Z,18.00
2022-11-10T00:46:01.388Z,18.23
2022-11-10T00:48:29.758Z,18.73
2022-11-10T00:50:58.603Z,19.33
2022-11-10T00:53:27.121Z,19.07
2022-11-10T00:55:55.611Z,19.57
2022-11-10T00:58:24.033Z,19.07
2022-11-10T01:00:53.928Z,20.40
2022-11-10T01:03:22.905Z,20.03
2022-11-10T01:05:51.581Z,20.47
2022-11-10T01:08:19.891Z,20.70
2022-11-10T01:10:48.381Z,21.00
2022-11-10T01:13:16.897Z,19.77
2022-11-10T01:15:45.548Z,19.33
2022-11-10T01:18:15.272Z,19.43
2022-11-10T01:20:43.751Z,20.30
2022-11-10T01:23:12.509Z,21.13
2022-11-10T01:25:40.990Z,20.90
2022-11-10T01:28:09.521Z,20.20
2022-11-10T01:30:38.009Z,24.77
2022-11-10T01:33:06.432Z,30.20
2022-11-10T01:35:36.613Z,31.83
2022-11-10T01:38:05.072Z,30.87
2022-11-10T01:40:34.050Z,23.70
2022-11-10T01:43:02.492Z,23.57
2022-11-10T01:45:43.771Z,24.50
2022-11-10T01:48:14.264Z,23.70
2022-11-10T01:50:44.446Z,22.97
2022-11-10T01:53:15.123Z,22.27
2022-11-10T01:55:44.677Z,22.00
2022-11-10T01:58:14.708Z,21.63
2022-11-10T02:00:43.334Z,22.13
2022-11-10T02:03:14.117Z,22.07
2022-11-10T02:05:44.597Z,20.77
2022-11-10T02:08:14.845Z,22.33
2022-11-10T02:10:43.265Z,21.87
2022-11-10T02:13:12.497Z,21.23
2022-11-10T02:15:41.178Z,22.07
2022-11-10T02:18:09.614Z,21.73
2022-11-10T02:20:38.082Z,20.70
2022-11-10T02:23:37.323Z,21.80
2022-11-10T02:26:06.804Z,21.03
2022-11-10T02:28:35.884Z,22.33
2022-11-10T02:31:04.852Z,22.60
2022-11-10T02:33:33.359Z,21.77
2022-11-10T02:36:01.818Z,22.23
2022-11-10T02:38:31.664Z,22.07
2022-11-10T02:41:00.112Z,22.83
2022-11-10T02:43:28.542Z,22.10
2022-11-10T02:45:56.947Z,22.87
2022-11-10T02:48:25.400Z,24.20
2022-11-10T02:50:53.925Z,25.17
2022-11-10T02:53:22.667Z,23.63
2022-11-10T02:55:52.809Z,22.13
2022-11-10T02:58:21.255Z,23.57
2022-11-10T03:00:49.805Z,21.47
2022-11-10T03:03:18.394Z,23.40
2022-11-10T03:05:46.858Z,23.00
2022-11-10T03:08:15.382Z,23.00
2022-11-10T03:10:43.891Z,22.80
2022-11-10T03:13:13.736Z,24.60
2022-11-10T03:15:42.149Z,25.00
2022-11-10T03:18:10.591Z,24.00
2022-11-10T03:20:39.192Z,25.23
2022-11-10T03:23:07.688Z,25.03
2022-11-10T03:25:37.346Z,23.93
2022-11-10T03:28:05.998Z,24.60
2022-11-10T03:30:35.928Z,23.57
2022-11-10T03:33:04.365Z,23.67
2022-11-10T03:35:32.924Z,23.30
2022-11-10T03:38:01.328Z,22.97
2022-11-10T03:40:29.839Z,22.33
2022-11-10T03:42:58.301Z,24.47
2022-11-10T03:45:26.712Z,23.33
2022-11-10T03:47:56.496Z,22.93
2022-11-10T03:50:24.904Z,22.00
2022-11-10T03:52:53.363Z,23.57
2022-11-10T03:55:22.048Z,24.87
2022-11-10T03:57:50.492Z,25.23
2022-11-10T04:00:18.951Z,23.60
2022-11-10T04:02:47.519Z,23.37
2022-11-10T04:05:35.184Z,23.27
2022-11-10T04:08:21.591Z,24.30
2022-11-10T04:10:51.524Z,23.47
2022-11-10T04:13:37.660Z,23.83
2022-11-10T04:16:06.131Z,25.50
2022-11-10T04:18:34.573Z,22.87
2022-11-10T04:21:05.091Z,24.20
2022-11-10T04:23:36.197Z,23.60
2022-11-10T04:26:23.158Z,24.00
2022-11-10T04:28:52.672Z,22.33
2022-11-10T04:31:21.952Z,22.73
2022-11-10T04:33:50.724Z,21.73
2022-11-10T04:36:21.915Z,22.53
2022-11-10T04:38:50.324Z,23.03
2022-11-10T04:41:18.868Z,20.07
2022-11-10T04:43:47.302Z,20.63
2022-11-10T04:46:20.814Z,22.40
2022-11-10T04:48:49.597Z,21.93
2022-11-10T04:51:18.225Z,23.77
2022-11-10T04:53:48.065Z,22.33
2022-11-10T04:56:17.142Z,21.33
2022-11-10T04:58:45.939Z,20.87
2022-11-10T05:01:14.925Z,20.43
2022-11-10T05:03:43.793Z,19.43
2022-11-10T05:06:12.805Z,17.73
2022-11-10T05:08:41.896Z,18.43
2022-11-10T05:11:12.270Z,17.73
2022-11-10T05:13:41.147Z,18.93
2022-11-10T05:16:10.033Z,19.23
2022-11-10T05:18:38.460Z,19.23
2022-11-10T05:21:06.948Z,29.27
2022-11-10T05:23:41.963Z,57.23
2022-11-10T05:26:12.774Z,24.30
2022-11-10T05:28:41.558Z,21.33
2022-11-10T05:31:10.250Z,21.03
2022-11-10T05:33:38.995Z,20.80
2022-11-10T05:36:08.573Z,20.60
2022-11-10T05:38:42.880Z,19.20
2022-11-10T05:41:13.631Z,19.63
2022-11-10T05:43:42.053Z,18.73
2022-11-10T05:46:10.514Z,18.70
2022-11-10T05:48:38.901Z,17.97
2022-11-10T05:51:07.602Z,16.80
2022-11-10T05:53:36.046Z,17.17
2022-11-10T05:56:04.433Z,17.47
2022-11-10T05:58:34.282Z,17.93
2022-11-10T06:01:02.717Z,18.60
2022-11-10T06:03:31.216Z,19.33
2022-11-10T06:05:59.767Z,18.47
2022-11-10T06:08:28.205Z,18.03
2022-11-10T06:10:56.639Z,16.73
2022-11-10T06:13:25.435Z,16.10
2022-11-10T06:15:55.513Z,17.17
2022-11-10T06:18:23.998Z,17.47
2022-11-10T06:20:52.556Z,17.90
2022-11-10T06:23:21.429Z,17.30
2022-11-10T06:25:50.083Z,15.93
2022-11-10T06:28:18.465Z,17.13
2022-11-10T06:30:46.898Z,16.27
2022-11-10T06:33:16.688Z,17.30
2022-11-10T06:35:45.083Z,17.17
2022-11-10T06:38:13.637Z,17.43
2022-11-10T06:40:42.042Z,16.93
2022-11-10T06:43:10.597Z,17.43
2022-11-10T06:45:39.048Z,17.27
2022-11-10T06:48:08.767Z,17.87
2022-11-10T06:50:38.594Z,17.70
2022-11-10T06:53:07.084Z,17.57
2022-11-10T06:55:35.492Z,16.93
2022-11-10T06:58:03.912Z,17.50
2022-11-10T07:00:32.466Z,17.30
2022-11-10T07:03:01.848Z,16.47
2022-11-10T07:05:30.262Z,16.97
2022-11-10T07:08:03.096Z,15.20
2022-11-10T07:10:31.513Z,16.53
2022-11-10T07:13:00.204Z,15.63
2022-11-10T07:15:28.926Z,14.50
2022-11-10T07:17:57.408Z,14.83
2022-11-10T07:20:26.248Z,15.33
2022-11-10T07:23:00.739Z,16.03
2022-11-10T07:25:29.559Z,17.17
2022-11-10T07:27:58.386Z,16.33
2022-11-10T07:30:26.829Z,15.97
2022-11-10T07:33:02.040Z,16.03
2022-11-10T07:35:31.158Z,17.17
2022-11-10T07:38:03.442Z,14.87
2022-11-10T07:40:32.219Z,14.73
2022-11-10T07:43:00.726Z,14.00
2022-11-10T07:45:29.392Z,14.60
2022-11-10T07:48:00.702Z,13.40
2022-11-10T07:50:29.061Z,13.07
2022-11-10T07:53:05.425Z,13.33
2022-11-10T07:55:33.853Z,12.90
2022-11-10T07:58:02.633Z,13.13
2022-11-10T08:00:31.155Z,12.90
2022-11-10T08:03:03.735Z,13.73
2022-11-10T08:05:32.613Z,13.33
2022-11-10T08:08:01.283Z,13.10
2022-11-10T08:10:31.578Z,13.33
2022-11-10T08:13:00.773Z,13.60
2022-11-10T08:15:30.018Z,13.77
2022-11-10T08:18:00.805Z,14.23
2022-11-10T08:20:29.512Z,13.57
2022-11-10T08:23:01.269Z,13.70
2022-11-10T08:25:35.157Z,14.10
2022-11-10T08:28:05.335Z,14.17
2022-11-10T08:30:33.837Z,14.30
2022-11-10T08:33:03.135Z,12.50
2022-11-10T08:35:33.003Z,11.47
2022-11-10T08:38:09.459Z,10.70
2022-11-10T08:40:40.085Z,10.63
2022-11-10T08:43:08.959Z,10.70
2022-11-10T08:45:37.462Z,9.53
2022-11-10T08:48:06.674Z,9.10
2022-11-10T08:50:35.072Z,9.90
2022-11-10T08:53:03.590Z,9.17
2022-11-10T08:55:32.312Z,9.53
2022-11-10T08:58:02.611Z,9.33
2022-11-10T09:00:31.677Z,10.63
2022-11-10T09:03:05.593Z,10.40
2022-11-10T09:05:34.150Z,9.40
2022-11-10T09:08:02.603Z,10.43
2022-11-10T09:10:31.063Z,10.87
2022-11-10T09:13:02.411Z,11.07
2022-11-10T09:15:31.203Z,10.03
2022-11-10T09:18:00.559Z,11.73
2022-11-10T09:20:29.712Z,10.57
2022-11-10T09:22:58.158Z,10.20
2022-11-10T09:25:26.601Z,12.13
2022-11-10T09:27:55.053Z,11.60
2022-11-10T09:30:25.414Z,12.50
2022-11-10T09:32:55.327Z,12.53
2022-11-10T09:35:23.745Z,11.70
2022-11-10T09:37:52.238Z,12.07
2022-11-10T09:40:22.528Z,12.60
2022-11-10T09:42:51.300Z,13.00
2022-11-10T09:45:23.265Z,12.33
2022-11-10T09:47:58.504Z,13.57
2022-11-10T09:50:31.663Z,14.07
2022-11-10T09:53:01.554Z,13.10
2022-11-10T09:55:33.601Z,13.77
2022-11-10T09:58:02.508Z,13.37
2022-11-10T10:00:33.215Z,14.33
2022-11-10T10:03:04.054Z,16.00
2022-11-10T10:05:52.397Z,14.97
2022-11-10T10:08:25.725Z,14.40
2022-11-10T10:10:58.474Z,15.10
2022-11-10T10:13:45.728Z,14.23
2022-11-10T10:16:18.748Z,13.90
2022-11-10T10:18:51.798Z,14.70
2022-11-10T10:21:32.517Z,14.93
2022-11-10T10:24:10.325Z,14.27
2022-11-10T10:26:44.952Z,14.80
2022-11-10T10:29:18.290Z,12.70
2022-11-10T10:31:49.307Z,13.27
2022-11-10T10:34:20.317Z,14.23
2022-11-10T10:36:48.750Z,12.93
2022-11-10T10:39:18.488Z,13.47
2022-11-10T10:41:47.831Z,12.63
2022-11-10T10:44:17.343Z,12.07
2022-11-10T10:46:49.969Z,12.13
2022-11-10T10:49:29.697Z,11.97
2022-11-10T10:52:04.997Z,10.80
2022-11-10T10:54:34.477Z,10.37
2022-11-10T10:57:07.550Z,11.47
2022-11-10T10:59:36.446Z,10.30
2022-11-10T11:02:04.814Z,8.97
2022-11-10T11:04:36.695Z,10.27
2022-11-10T11:07:06.507Z,8.13
2022-11-10T11:09:41.712Z,8.97
2022-11-10T11:12:12.439Z,8.60
2022-11-10T11:14:45.779Z,7.80
2022-11-10T11:17:15.980Z,8.00
2022-11-10T11:19:45.925Z,8.80
2022-11-10T11:22:33.009Z,7.57
2022-11-10T11:25:06.396Z,6.77
2022-11-10T11:27:40.782Z,6.83
2022-11-10T11:30:13.144Z,7.77
2022-11-10T11:32:52.233Z,7.17
2022-11-10T11:35:27.489Z,7.30
2022-11-10T11:38:03.049Z,7.27
2022-11-10T11:40:38.461Z,7.70
2022-11-10T11:43:16.376Z,7.37
2022-11-10T11:45:51.005Z,8.60
2022-11-10T11:48:26.297Z,7.07
2022-11-10T11:50:57.647Z,6.90
2022-11-10T11:53:31.634Z,7.20
2022-11-10T11:56:05.938Z,8.03
2022-11-10T11:58:40.318Z,9.27
2022-11-10T12:01:13.375Z,8.93
2022-11-10T12:03:48.780Z,9.87
2022-11-10T12:06:41.713Z,10.93
2022-11-10T12:09:17.431Z,10.37
2022-11-10T12:11:53.755Z,10.90
2022-11-10T12:14:25.958Z,9.60
2022-11-10T12:17:00.548Z,9.73
2022-11-10T12:19:35.435Z,10.30
2022-11-10T12:22:11.391Z,9.67
2022-11-10T12:24:46.799Z,9.97
2022-11-10T12:27:16.944Z,10.27
2022-11-10T12:29:46.682Z,9.43
2022-11-10T12:32:22.272Z,9.07
2022-11-10T12:34:53.148Z,9.37
2022-11-10T12:37:27.878Z,10.23
2022-11-10T12:40:00.199Z,9.77
2022-11-10T12:42:30.764Z,9.67
2022-11-10T12:45:00.766Z,9.03
2022-11-10T12:47:31.191Z,9.10
2022-11-10T12:50:03.459Z,8.87
2022-11-10T12:52:34.360Z,8.60
2022-11-10T12:55:04.241Z,8.20
2022-11-10T12:57:33.670Z,8.30
2022-11-10T13:00:03.598Z,8.90
2022-11-10T13:02:34.393Z,8.93
2022-11-10T13:05:25.599Z,9.63
2022-11-10T13:08:06.405Z,8.80
2022-11-10T13:10:36.305Z,8.67
2022-11-10T13:13:09.138Z,8.87
2022-11-10T13:15:58.246Z,9.67
2022-11-10T13:18:51.176Z,13.10
2022-11-10T13:21:21.662Z,42.17
2022-11-10T13:24:08.759Z,10.80
2022-11-10T13:26:50.991Z,7.40
2022-11-10T13:29:29.722Z,8.60
2022-11-10T13:31:59.013Z,8.53
2022-11-10T13:34:31.912Z,9.13
2022-11-10T13:37:01.849Z,9.20
2022-11-10T13:39:31.693Z,9.03
2022-11-10T13:42:03.091Z,9.40
2022-11-10T13:44:32.879Z,10.33
2022-11-10T13:47:35.018Z,9.33
2022-11-10T13:50:09.987Z,10.30
2022-11-10T13:52:48.432Z,11.27
2022-11-10T13:55:21.196Z,11.07
2022-11-10T13:57:59.337Z,11.97
2022-11-10T14:00:28.761Z,44.83
2022-11-10T14:02:58.203Z,14.50
2022-11-10T14:05:45.404Z,13.27
2022-11-10T14:08:16.209Z,14.73
2022-11-10T14:10:47.078Z,16.60
2022-11-10T14:13:18.251Z,18.47
2022-11-10T14:15:47.943Z,20.30
2022-11-10T14:18:19.574Z,21.50
2022-11-10T14:20:49.174Z,21.67
2022-11-10T14:23:23.323Z,22.00
2022-11-10T14:25:54.446Z,21.70
2022-11-10T14:28:29.667Z,21.17
2022-11-10T14:30:58.183Z,26.50
2022-11-10T14:33:27.516Z,28.77
2022-11-10T14:35:57.346Z,24.53
2022-11-10T14:38:28.746Z,24.07
2022-11-10T14:40:58.385Z,22.60
2022-11-10T14:43:28.418Z,23.47
2022-11-10T14:45:57.033Z,21.90
2022-11-10T14:48:26.554Z,20.67
2022-11-10T14:50:55.216Z,20.40
2022-11-10T14:53:29.300Z,19.03
2022-11-10T14:56:00.269Z,20.63
2022-11-10T14:58:29.925Z,20.57
2022-11-10T15:00:58.861Z,20.33
2022-11-10T15:03:35.673Z,19.13
2022-11-10T15:06:05.076Z,20.23
2022-11-10T15:08:33.881Z,21.43
2022-11-10T15:11:03.896Z,19.37
2022-11-10T15:13:39.077Z,20.70
2022-11-10T15:16:23.412Z,20.43
2022-11-10T15:18:51.826Z,22.53
2022-11-10T15:21:21.085Z,19.67
2022-11-10T15:23:54.439Z,19.37
2022-11-10T15:26:25.187Z,18.93
2022-11-10T15:28:54.085Z,19.47
2022-11-10T15:31:24.166Z,18.77
2022-11-10T15:33:53.960Z,18.63
2022-11-10T15:36:32.105Z,19.47
2022-11-10T15:39:07.997Z,19.60
2022-11-10T15:41:38.536Z,18.57
2022-11-10T15:44:15.288Z,18.00
2022-11-10T15:46:43.721Z,16.90
2022-11-10T15:49:15.089Z,16.90
2022-11-10T15:51:43.457Z,16.50
2022-11-10T15:54:12.543Z,18.73
2022-11-10T15:56:42.386Z,16.90
2022-11-10T15:59:11.663Z,17.97
2022-11-10T16:01:40.430Z,17.17
2022-11-10T16:04:10.896Z,18.30
2022-11-10T16:06:39.528Z,18.67
2022-11-10T16:09:08.368Z,18.40
2022-11-10T16:11:36.901Z,18.70
2022-11-10T16:14:07.124Z,19.23
2022-11-10T16:16:35.622Z,18.93
2022-11-10T16:19:05.199Z,19.33
2022-11-10T16:21:33.617Z,19.00
2022-11-10T16:24:02.669Z,19.23
2022-11-10T16:26:31.305Z,19.57
2022-11-10T16:28:59.740Z,19.63
2022-11-10T16:31:31.844Z,20.27
2022-11-10T16:34:00.223Z,20.33
2022-11-10T16:36:29.788Z,19.73
2022-11-10T16:38:58.438Z,20.23
2022-11-10T16:41:26.806Z,19.90
2022-11-10T16:43:55.267Z,19.10
2022-11-10T16:46:24.300Z,19.80
2022-11-10T16:48:55.241Z,22.23
2022-11-10T16:51:28.571Z,20.53
2022-11-10T16:53:57.004Z,22.33
2022-11-10T16:56:26.834Z,21.27
2022-11-10T16:58:55.496Z,22.10
2022-11-10T17:01:25.683Z,21.73
2022-11-10T17:03:57.213Z,21.40
2022-11-10T17:06:26.375Z,21.47
2022-11-10T17:08:57.412Z,22.00
2022-11-10T17:11:25.894Z,20.90
2022-11-10T17:13:54.561Z,20.67
2022-11-10T17:16:24.836Z,21.33
2022-11-10T17:18:53.542Z,20.60
2022-11-10T17:21:26.231Z,21.87
2022-11-10T17:23:58.741Z,23.37
2022-11-10T17:26:27.206Z,20.00
2022-11-10T17:28:55.725Z,21.40
2022-11-10T17:31:24.301Z,20.67
2022-11-10T17:33:52.688Z,19.57
2022-11-10T17:36:22.708Z,19.77
2022-11-10T17:38:53.145Z,18.90
2022-11-10T17:41:22.261Z,20.63
2022-11-10T17:43:50.698Z,19.13
2022-11-10T17:46:19.127Z,19.47
2022-11-10T17:48:48.214Z,19.07
2022-11-10T17:51:20.192Z,19.70
2022-11-10T17:53:50.667Z,20.07
2022-11-10T17:56:20.704Z,20.33
2022-11-10T17:58:49.238Z,21.93
2022-11-10T18:01:18.814Z,22.60
2022-11-10T18:03:47.362Z,22.97
2022-11-10T18:06:16.326Z,20.53
2022-11-10T18:08:44.840Z,20.67
2022-11-10T18:11:14.161Z,20.20
2022-11-10T18:13:44.380Z,21.40
2022-11-10T18:16:13.907Z,20.37
2022-11-10T18:18:42.298Z,19.27
2022-11-10T18:21:11.643Z,20.37
2022-11-10T18:23:40.255Z,19.53
2022-11-10T18:26:11.636Z,20.40
2022-11-10T18:28:42.102Z,20.23
2022-11-10T18:31:13.019Z,21.40
2022-11-10T18:33:41.929Z,20.97
2022-11-10T18:36:11.282Z,20.93
2022-11-10T18:38:39.774Z,23.30
2022-11-10T18:41:26.451Z,22.60
2022-11-10T18:43:54.869Z,22.90
2022-11-10T18:46:24.801Z,26.17
2022-11-10T18:48:53.262Z,27.27
2022-11-10T18:51:21.713Z,26.20
2022-11-10T18:53:50.203Z,24.43
2022-11-10T18:56:18.629Z,38.37
2022-11-10T18:58:47.125Z,31.97
2022-11-10T19:01:15.678Z,23.77
2022-11-10T19:03:45.555Z,23.20
2022-11-10T19:06:14.718Z,22.53
2022-11-10T19:08:43.239Z,23.67
2022-11-10T19:11:12.898Z,22.23
2022-11-10T19:13:41.686Z,24.10
2022-11-10T19:16:11.150Z,23.47
2022-11-10T19:18:40.265Z,22.23
2022-11-10T19:21:11.172Z,22.63
2022-11-10T19:23:39.717Z,36.60
2022-11-10T19:26:10.048Z,23.90
2022-11-10T19:28:38.535Z,22.90
2022-11-10T19:31:07.778Z,22.33
2022-11-10T19:33:37.644Z,23.23
2022-11-10T19:36:06.392Z,23.57
2022-11-10T19:38:36.359Z,23.23
2022-11-10T19:41:05.784Z,23.47
2022-11-10T19:43:34.270Z,24.83
2022-11-10T19:46:06.576Z,24.10
2022-11-10T19:48:35.365Z,24.73
2022-11-10T19:51:04.388Z,23.57
2022-11-10T19:53:33.191Z,24.00
2022-11-10T19:56:03.685Z,21.90
2022-11-10T19:58:32.572Z,22.77
2022-11-10T20:01:02.184Z,24.07
2022-11-10T20:03:30.757Z,23.13
2022-11-10T20:05:59.978Z,23.23
2022-11-10T20:08:28.506Z,24.70
2022-11-10T20:11:00.128Z,23.73
2022-11-10T20:13:30.053Z,22.80
2022-11-10T20:15:58.529Z,22.10
2022-11-10T20:18:27.023Z,22.60
2022-11-10T20:20:55.503Z,21.23
2022-11-10T20:23:24.267Z,22.43
2022-11-10T20:26:02.533Z,21.30
2022-11-10T20:28:33.658Z,25.33
2022-11-10T20:31:02.128Z,22.97
2022-11-10T20:33:31.023Z,21.67
2022-11-10T20:36:04.550Z,21.37
2022-11-10T20:38:33.045Z,22.27
2022-11-10T20:41:05.993Z,22.27
2022-11-10T20:43:36.897Z,20.43
2022-11-10T20:46:06.170Z,20.73
2022-11-10T20:48:35.363Z,21.17
2022-11-10T20:51:09.426Z,22.17
2022-11-10T20:53:38.935Z,20.87
2022-11-10T20:56:07.742Z,21.57
2022-11-10T20:58:37.531Z,22.07
2022-11-10T21:01:06.687Z,23.00
2022-11-10T21:03:35.493Z,22.13
2022-11-10T21:06:03.885Z,23.73
2022-11-10T21:08:32.686Z,34.87
2022-11-10T21:11:02.078Z,29.33
2022-11-10T21:13:29.652Z,24.63
2022-11-10T21:16:00.038Z,25.20
2022-11-10T21:18:29.411Z,24.77
2022-11-10T21:20:57.818Z,25.23
2022-11-10T21:23:26.381Z,22.57
2022-11-10T21:25:55.294Z,25.63
2022-11-10T21:28:23.775Z,25.63
2022-11-10T21:30:52.284Z,24.70
2022-11-10T21:33:22.556Z,23.63
2022-11-10T21:35:51.133Z,32.80
2022-11-10T21:38:19.475Z,38.73
2022-11-10T21:40:47.924Z,31.43
2022-11-10T21:43:16.343Z,24.13
2022-11-10T21:45:44.699Z,24.47
2022-11-10T21:48:13.149Z,24.73
2022-11-10T21:50:43.097Z,25.97
2022-11-10T21:53:11.521Z,24.30
2022-11-10T21:55:39.991Z,23.07
2022-11-10T21:58:08.465Z,21.83
2022-11-10T22:00:36.965Z,22.97
2022-11-10T22:03:05.844Z,22.33
2022-11-10T22:05:35.265Z,22.50
2022-11-10T22:08:05.192Z,21.67
2022-11-10T22:10:51.136Z,22.67
2022-11-10T22:13:37.668Z,21.97
2022-11-10T22:16:34.374Z,21.63
2022-11-10T22:19:02.805Z,20.93
2022-11-10T22:21:31.142Z,22.00
2022-11-10T22:24:18.619Z,21.27
2022-11-10T22:26:47.077Z,21.10
2022-11-10T22:29:15.680Z,21.03
2022-11-10T22:31:44.148Z,22.80
2022-11-10T22:34:12.653Z,21.67
2022-11-10T22:36:41.092Z,20.93
2022-11-10T22:39:11.067Z,19.10
2022-11-10T22:41:56.928Z,18.60
2022-11-10T22:44:25.421Z,19.30
2022-11-10T22:46:54.263Z,19.70
2022-11-10T22:49:23.347Z,20.60
2022-11-10T22:51:52.768Z,20.87
2022-11-10T22:54:23.942Z,21.80
2022-11-10T22:56:52.668Z,22.03
2022-11-10T22:59:21.383Z,19.67
2022-11-10T23:01:49.919Z,23.60
2022-11-10T23:04:18.355Z,20.63
2022-11-10T23:06:46.830Z,20.93
2022-11-10T23:09:15.246Z,20.73
2022-11-10T23:11:45.106Z,21.23
2022-11-10T23:14:13.585Z,18.90
2022-11-10T23:16:42.078Z,22.93
2022-11-10T23:19:12.197Z,34.37
2022-11-10T23:21:40.598Z,32.43
2022-11-10T23:24:09.343Z,30.83
2022-11-10T23:26:37.773Z,32.30
2022-11-10T23:29:07.670Z,32.33
2022-11-10T23:31:36.124Z,31.77
2022-11-10T23:34:04.532Z,27.67
2022-11-10T23:36:32.928Z,26.43
2022-11-10T23:39:01.391Z,25.87
2022-11-10T23:41:29.803Z,24.87
2022-11-10T23:43:58.224Z,26.13
2022-11-10T23:46:27.923Z,30.23
2022-11-10T23:48:56.348Z,30.43
2022-11-10T23:51:25.826Z,29.50
2022-11-10T23:53:54.266Z,36.03
2022-11-10T23:56:22.760Z,32.63
2022-11-10T23:58:51.140Z,31.30
